sensor_id;sensor_type;location;lat;lon;timestamp;P1;durP1;ratioP1;P2;durP2;ratioP2
24157;SDS011;12316;50.904;4.200;2023-10-31T00:01:49;53.30;;;26.10;;
24157;SDS011;12316;50.904;4.200;2023-10-31T00:04:15;52.15;;;24.75;;
24157;SDS011;12316;50.904;4.200;2023-10-31T00:06:40;50.25;;;23.73;;
24157;SDS011;12316;50.904;4.200;2023-10-31T00:09:06;51.08;;;24.50;;
24157;SDS011;12316;50.904;4.200;2023-10-31T00:11:32;44.17;;;23.00;;
24157;SDS011;12316;50.904;4.200;2023-10-31T00:13:57;41.05;;;21.63;;
24157;SDS011;12316;50.904;4.200;2023-10-31T00:16:23;48.88;;;23.15;;
24157;SDS011;12316;50.904;4.200;2023-10-31T00:18:49;44.03;;;20.88;;
24157;SDS011;12316;50.904;4.200;2023-10-31T00:21:14;41.08;;;21.45;;
24157;SDS011;12316;50.904;4.200;2023-10-31T00:23:43;43.22;;;21.02;;
24157;SDS011;12316;50.904;4.200;2023-10-31T00:26:10;35.33;;;19.70;;
24157;SDS011;12316;50.904;4.200;2023-10-31T00:28:36;31.88;;;19.45;;
24157;SDS011;12316;50.904;4.200;2023-10-31T00:31:01;31.92;;;18.10;;
24157;SDS011;12316;50.904;4.200;2023-10-31T00:33:29;29.20;;;16.58;;
24157;SDS011;12316;50.904;4.200;2023-10-31T00:35:55;27.10;;;16.58;;
24157;SDS011;12316;50.904;4.200;2023-10-31T00:38:21;28.77;;;15.88;;
24157;SDS011;12316;50.904;4.200;2023-10-31T00:40:46;28.05;;;16.05;;
24157;SDS011;12316;50.904;4.200;2023-10-31T00:43:13;29.45;;;16.23;;
24157;SDS011;12316;50.904;4.200;2023-10-31T00:45:39;25.27;;;14.88;;
24157;SDS011;12316;50.904;4.200;2023-10-31T00:48:04;24.98;;;13.50;;
24157;SDS011;12316;50.904;4.200;2023-10-31T00:50:30;20.92;;;12.02;;
24157;SDS011;12316;50.904;4.200;2023-10-31T00:52:56;21.52;;;12.80;;
24157;SDS011;12316;50.904;4.200;2023-10-31T00:55:22;22.23;;;11.75;;
24157;SDS011;12316;50.904;4.200;2023-10-31T00:57:47;17.38;;;11.40;;
24157;SDS011;12316;50.904;4.200;2023-10-31T01:00:13;16.90;;;10.85;;
24157;SDS011;12316;50.904;4.200;2023-10-31T01:02:39;18.38;;;10.35;;
24157;SDS011;12316;50.904;4.200;2023-10-31T01:05:04;20.77;;;10.88;;
24157;SDS011;12316;50.904;4.200;2023-10-31T01:07:30;17.38;;;10.45;;
24157;SDS011;12316;50.904;4.200;2023-10-31T01:09:56;17.50;;;10.15;;
24157;SDS011;12316;50.904;4.200;2023-10-31T01:12:21;16.10;;;9.88;;
24157;SDS011;12316;50.904;4.200;2023-10-31T01:14:47;21.65;;;10.55;;
24157;SDS011;12316;50.904;4.200;2023-10-31T01:17:13;20.38;;;10.10;;
24157;SDS011;12316;50.904;4.200;2023-10-31T01:19:39;17.58;;;10.05;;
24157;SDS011;12316;50.904;4.200;2023-10-31T01:22:05;18.70;;;9.85;;
24157;SDS011;12316;50.904;4.200;2023-10-31T01:24:32;19.30;;;10.30;;
24157;SDS011;12316;50.904;4.200;2023-10-31T01:26:57;13.75;;;10.32;;
24157;SDS011;12316;50.904;4.200;2023-10-31T01:29:23;15.80;;;10.68;;
24157;SDS011;12316;50.904;4.200;2023-10-31T01:31:49;20.58;;;10.82;;
24157;SDS011;12316;50.904;4.200;2023-10-31T01:34:14;18.23;;;10.90;;
24157;SDS011;12316;50.904;4.200;2023-10-31T01:36:40;15.35;;;10.65;;
24157;SDS011;12316;50.904;4.200;2023-10-31T01:39:05;17.23;;;11.25;;
24157;SDS011;12316;50.904;4.200;2023-10-31T01:41:33;17.77;;;11.77;;
24157;SDS011;12316;50.904;4.200;2023-10-31T01:43:59;20.13;;;10.90;;
24157;SDS011;12316;50.904;4.200;2023-10-31T01:46:24;19.48;;;12.57;;
24157;SDS011;12316;50.904;4.200;2023-10-31T01:48:50;18.52;;;13.02;;
24157;SDS011;12316;50.904;4.200;2023-10-31T01:51:16;21.88;;;13.35;;
24157;SDS011;12316;50.904;4.200;2023-10-31T01:53:42;19.38;;;13.30;;
24157;SDS011;12316;50.904;4.200;2023-10-31T01:56:07;20.73;;;13.73;;
24157;SDS011;12316;50.904;4.200;2023-10-31T01:58:34;18.98;;;13.80;;
24157;SDS011;12316;50.904;4.200;2023-10-31T02:01:01;19.98;;;13.10;;
24157;SDS011;12316;50.904;4.200;2023-10-31T02:03:29;21.35;;;13.10;;
24157;SDS011;12316;50.904;4.200;2023-10-31T02:05:56;21.50;;;13.75;;
24157;SDS011;12316;50.904;4.200;2023-10-31T02:08:22;21.85;;;14.32;;
24157;SDS011;12316;50.904;4.200;2023-10-31T02:10:49;21.73;;;14.48;;
24157;SDS011;12316;50.904;4.200;2023-10-31T02:13:15;20.60;;;14.10;;
24157;SDS011;12316;50.904;4.200;2023-10-31T02:15:42;20.65;;;14.45;;
24157;SDS011;12316;50.904;4.200;2023-10-31T02:18:07;20.05;;;14.05;;
24157;SDS011;12316;50.904;4.200;2023-10-31T02:20:33;24.35;;;13.93;;
24157;SDS011;12316;50.904;4.200;2023-10-31T02:22:59;21.25;;;13.45;;
24157;SDS011;12316;50.904;4.200;2023-10-31T02:25:25;21.17;;;13.10;;
24157;SDS011;12316;50.904;4.200;2023-10-31T02:27:52;19.50;;;13.75;;
24157;SDS011;12316;50.904;4.200;2023-10-31T02:30:17;20.63;;;13.23;;
24157;SDS011;12316;50.904;4.200;2023-10-31T02:32:44;20.13;;;13.48;;
24157;SDS011;12316;50.904;4.200;2023-10-31T02:35:10;24.83;;;13.65;;
24157;SDS011;12316;50.904;4.200;2023-10-31T02:37:35;19.58;;;13.65;;
24157;SDS011;12316;50.904;4.200;2023-10-31T02:40:01;19.02;;;13.55;;
24157;SDS011;12316;50.904;4.200;2023-10-31T02:42:27;18.00;;;13.68;;
24157;SDS011;12316;50.904;4.200;2023-10-31T02:44:54;23.08;;;13.85;;
24157;SDS011;12316;50.904;4.200;2023-10-31T02:47:19;21.58;;;13.25;;
24157;SDS011;12316;50.904;4.200;2023-10-31T02:49:45;20.98;;;13.07;;
24157;SDS011;12316;50.904;4.200;2023-10-31T02:52:11;19.05;;;13.13;;
24157;SDS011;12316;50.904;4.200;2023-10-31T02:54:36;19.58;;;12.45;;
24157;SDS011;12316;50.904;4.200;2023-10-31T02:57:02;19.20;;;12.75;;
24157;SDS011;12316;50.904;4.200;2023-10-31T02:59:28;22.25;;;12.98;;
24157;SDS011;12316;50.904;4.200;2023-10-31T03:01:55;20.33;;;11.23;;
24157;SDS011;12316;50.904;4.200;2023-10-31T03:04:22;20.80;;;11.65;;
24157;SDS011;12316;50.904;4.200;2023-10-31T03:06:48;17.48;;;10.90;;
24157;SDS011;12316;50.904;4.200;2023-10-31T03:09:14;17.90;;;10.38;;
24157;SDS011;12316;50.904;4.200;2023-10-31T03:11:39;15.13;;;9.55;;
24157;SDS011;12316;50.904;4.200;2023-10-31T03:14:05;17.85;;;9.70;;
24157;SDS011;12316;50.904;4.200;2023-10-31T03:16:31;17.60;;;9.15;;
24157;SDS011;12316;50.904;4.200;2023-10-31T03:18:57;15.73;;;8.68;;
24157;SDS011;12316;50.904;4.200;2023-10-31T03:21:23;11.38;;;8.40;;
24157;SDS011;12316;50.904;4.200;2023-10-31T03:23:49;10.30;;;7.72;;
24157;SDS011;12316;50.904;4.200;2023-10-31T03:26:16;15.82;;;8.57;;
24157;SDS011;12316;50.904;4.200;2023-10-31T03:28:42;12.00;;;7.38;;
24157;SDS011;12316;50.904;4.200;2023-10-31T03:31:08;11.50;;;7.35;;
24157;SDS011;12316;50.904;4.200;2023-10-31T03:33:34;11.90;;;7.60;;
24157;SDS011;12316;50.904;4.200;2023-10-31T03:36:00;13.07;;;7.47;;
24157;SDS011;12316;50.904;4.200;2023-10-31T03:38:26;13.68;;;7.00;;
24157;SDS011;12316;50.904;4.200;2023-10-31T03:40:53;11.43;;;7.15;;
24157;SDS011;12316;50.904;4.200;2023-10-31T03:43:18;10.52;;;6.72;;
24157;SDS011;12316;50.904;4.200;2023-10-31T03:45:45;11.10;;;7.00;;
24157;SDS011;12316;50.904;4.200;2023-10-31T03:48:12;10.07;;;7.10;;
24157;SDS011;12316;50.904;4.200;2023-10-31T03:50:38;10.30;;;6.90;;
24157;SDS011;12316;50.904;4.200;2023-10-31T03:53:03;12.00;;;7.30;;
24157;SDS011;12316;50.904;4.200;2023-10-31T03:55:29;13.48;;;7.22;;
24157;SDS011;12316;50.904;4.200;2023-10-31T03:57:55;14.15;;;7.22;;
24157;SDS011;12316;50.904;4.200;2023-10-31T04:00:21;12.15;;;7.38;;
24157;SDS011;12316;50.904;4.200;2023-10-31T04:02:47;10.93;;;6.95;;
24157;SDS011;12316;50.904;4.200;2023-10-31T04:05:13;11.77;;;7.88;;
24157;SDS011;12316;50.904;4.200;2023-10-31T04:07:38;14.32;;;7.97;;
24157;SDS011;12316;50.904;4.200;2023-10-31T04:10:04;13.18;;;7.63;;
24157;SDS011;12316;50.904;4.200;2023-10-31T04:12:30;12.70;;;7.50;;
24157;SDS011;12316;50.904;4.200;2023-10-31T04:14:56;13.45;;;8.15;;
24157;SDS011;12316;50.904;4.200;2023-10-31T04:17:22;10.43;;;7.93;;
24157;SDS011;12316;50.904;4.200;2023-10-31T04:19:48;12.15;;;8.82;;
24157;SDS011;12316;50.904;4.200;2023-10-31T04:22:13;10.75;;;8.38;;
24157;SDS011;12316;50.904;4.200;2023-10-31T04:24:39;15.10;;;8.68;;
24157;SDS011;12316;50.904;4.200;2023-10-31T04:27:06;18.75;;;9.32;;
24157;SDS011;12316;50.904;4.200;2023-10-31T04:29:32;17.30;;;10.45;;
24157;SDS011;12316;50.904;4.200;2023-10-31T04:31:58;16.55;;;11.60;;
24157;SDS011;12316;50.904;4.200;2023-10-31T04:34:23;20.23;;;12.63;;
24157;SDS011;12316;50.904;4.200;2023-10-31T04:36:49;23.23;;;12.95;;
24157;SDS011;12316;50.904;4.200;2023-10-31T04:39:14;23.40;;;13.90;;
24157;SDS011;12316;50.904;4.200;2023-10-31T04:41:40;24.08;;;15.18;;
24157;SDS011;12316;50.904;4.200;2023-10-31T04:44:06;23.20;;;15.45;;
24157;SDS011;12316;50.904;4.200;2023-10-31T04:46:31;22.83;;;15.02;;
24157;SDS011;12316;50.904;4.200;2023-10-31T04:48:57;24.58;;;15.85;;
24157;SDS011;12316;50.904;4.200;2023-10-31T04:51:22;24.77;;;16.40;;
24157;SDS011;12316;50.904;4.200;2023-10-31T04:53:48;21.45;;;16.17;;
24157;SDS011;12316;50.904;4.200;2023-10-31T04:56:14;24.65;;;17.23;;
24157;SDS011;12316;50.904;4.200;2023-10-31T04:58:41;26.67;;;17.48;;
24157;SDS011;12316;50.904;4.200;2023-10-31T05:01:08;24.83;;;17.10;;
24157;SDS011;12316;50.904;4.200;2023-10-31T05:03:34;25.90;;;17.50;;
24157;SDS011;12316;50.904;4.200;2023-10-31T05:05:59;28.73;;;17.80;;
24157;SDS011;12316;50.904;4.200;2023-10-31T05:08:25;24.05;;;16.70;;
24157;SDS011;12316;50.904;4.200;2023-10-31T05:10:50;29.73;;;19.35;;
24157;SDS011;12316;50.904;4.200;2023-10-31T05:13:16;29.70;;;18.88;;
24157;SDS011;12316;50.904;4.200;2023-10-31T05:15:42;29.52;;;19.58;;
24157;SDS011;12316;50.904;4.200;2023-10-31T05:18:07;30.77;;;19.05;;
24157;SDS011;12316;50.904;4.200;2023-10-31T05:20:33;30.67;;;19.05;;
24157;SDS011;12316;50.904;4.200;2023-10-31T05:22:58;27.95;;;18.90;;
24157;SDS011;12316;50.904;4.200;2023-10-31T05:25:24;29.10;;;18.88;;
24157;SDS011;12316;50.904;4.200;2023-10-31T05:27:50;29.00;;;19.15;;
24157;SDS011;12316;50.904;4.200;2023-10-31T05:30:17;28.92;;;19.40;;
24157;SDS011;12316;50.904;4.200;2023-10-31T05:32:43;30.65;;;19.52;;
24157;SDS011;12316;50.904;4.200;2023-10-31T05:35:09;27.13;;;18.92;;
24157;SDS011;12316;50.904;4.200;2023-10-31T05:37:35;28.25;;;18.05;;
24157;SDS011;12316;50.904;4.200;2023-10-31T05:40:01;29.88;;;18.52;;
24157;SDS011;12316;50.904;4.200;2023-10-31T05:42:26;27.20;;;19.08;;
24157;SDS011;12316;50.904;4.200;2023-10-31T05:44:52;28.00;;;18.63;;
24157;SDS011;12316;50.904;4.200;2023-10-31T05:47:19;29.02;;;19.35;;
24157;SDS011;12316;50.904;4.200;2023-10-31T05:49:45;26.80;;;19.23;;
24157;SDS011;12316;50.904;4.200;2023-10-31T05:52:11;29.75;;;19.70;;
24157;SDS011;12316;50.904;4.200;2023-10-31T05:54:37;27.42;;;19.38;;
24157;SDS011;12316;50.904;4.200;2023-10-31T05:57:03;28.63;;;19.05;;
24157;SDS011;12316;50.904;4.200;2023-10-31T05:59:28;27.40;;;19.52;;
24157;SDS011;12316;50.904;4.200;2023-10-31T06:01:54;28.92;;;20.45;;
24157;SDS011;12316;50.904;4.200;2023-10-31T06:04:20;29.38;;;20.27;;
24157;SDS011;12316;50.904;4.200;2023-10-31T06:06:45;26.90;;;18.90;;
24157;SDS011;12316;50.904;4.200;2023-10-31T06:09:11;30.33;;;19.63;;
24157;SDS011;12316;50.904;4.200;2023-10-31T06:11:40;28.58;;;19.77;;
24157;SDS011;12316;50.904;4.200;2023-10-31T06:14:07;26.95;;;19.50;;
24157;SDS011;12316;50.904;4.200;2023-10-31T06:16:32;29.40;;;19.77;;
24157;SDS011;12316;50.904;4.200;2023-10-31T06:18:58;29.42;;;18.98;;
24157;SDS011;12316;50.904;4.200;2023-10-31T06:21:24;26.98;;;18.52;;
24157;SDS011;12316;50.904;4.200;2023-10-31T06:23:49;26.27;;;18.85;;
24157;SDS011;12316;50.904;4.200;2023-10-31T06:26:15;23.38;;;17.05;;
24157;SDS011;12316;50.904;4.200;2023-10-31T06:28:41;26.13;;;17.75;;
24157;SDS011;12316;50.904;4.200;2023-10-31T06:31:06;25.55;;;17.35;;
24157;SDS011;12316;50.904;4.200;2023-10-31T06:33:32;24.83;;;18.65;;
24157;SDS011;12316;50.904;4.200;2023-10-31T06:35:57;23.15;;;16.77;;
24157;SDS011;12316;50.904;4.200;2023-10-31T06:38:23;23.20;;;17.42;;
24157;SDS011;12316;50.904;4.200;2023-10-31T06:40:50;23.85;;;17.05;;
24157;SDS011;12316;50.904;4.200;2023-10-31T06:43:16;22.50;;;17.15;;
24157;SDS011;12316;50.904;4.200;2023-10-31T06:45:41;24.67;;;17.08;;
24157;SDS011;12316;50.904;4.200;2023-10-31T06:48:07;21.95;;;16.85;;
24157;SDS011;12316;50.904;4.200;2023-10-31T06:50:34;23.52;;;16.85;;
24157;SDS011;12316;50.904;4.200;2023-10-31T06:52:59;23.33;;;16.23;;
24157;SDS011;12316;50.904;4.200;2023-10-31T06:55:25;24.52;;;16.67;;
24157;SDS011;12316;50.904;4.200;2023-10-31T06:57:50;27.23;;;17.27;;
24157;SDS011;12316;50.904;4.200;2023-10-31T07:00:16;24.65;;;16.92;;
24157;SDS011;12316;50.904;4.200;2023-10-31T07:02:42;22.88;;;17.20;;
24157;SDS011;12316;50.904;4.200;2023-10-31T07:05:07;29.25;;;17.27;;
24157;SDS011;12316;50.904;4.200;2023-10-31T07:07:33;24.00;;;17.42;;
24157;SDS011;12316;50.904;4.200;2023-10-31T07:09:59;22.77;;;15.73;;
24157;SDS011;12316;50.904;4.200;2023-10-31T07:12:24;23.42;;;17.08;;
24157;SDS011;12316;50.904;4.200;2023-10-31T07:14:51;23.17;;;15.85;;
24157;SDS011;12316;50.904;4.200;2023-10-31T07:17:18;22.45;;;15.75;;
24157;SDS011;12316;50.904;4.200;2023-10-31T07:19:43;21.63;;;15.30;;
24157;SDS011;12316;50.904;4.200;2023-10-31T07:22:09;25.85;;;16.10;;
24157;SDS011;12316;50.904;4.200;2023-10-31T07:24:34;20.73;;;15.45;;
24157;SDS011;12316;50.904;4.200;2023-10-31T07:27:01;22.80;;;15.85;;
24157;SDS011;12316;50.904;4.200;2023-10-31T07:29:26;21.67;;;16.52;;
24157;SDS011;12316;50.904;4.200;2023-10-31T07:31:53;20.63;;;15.40;;
24157;SDS011;12316;50.904;4.200;2023-10-31T07:34:19;17.77;;;14.77;;
24157;SDS011;12316;50.904;4.200;2023-10-31T07:36:44;21.08;;;15.73;;
24157;SDS011;12316;50.904;4.200;2023-10-31T07:39:10;21.67;;;15.00;;
24157;SDS011;12316;50.904;4.200;2023-10-31T07:41:37;18.15;;;15.10;;
24157;SDS011;12316;50.904;4.200;2023-10-31T07:44:03;19.60;;;14.43;;
24157;SDS011;12316;50.904;4.200;2023-10-31T07:46:29;18.40;;;14.45;;
24157;SDS011;12316;50.904;4.200;2023-10-31T07:48:55;19.23;;;13.63;;
24157;SDS011;12316;50.904;4.200;2023-10-31T07:51:20;17.33;;;14.05;;
24157;SDS011;12316;50.904;4.200;2023-10-31T07:53:46;17.02;;;13.57;;
24157;SDS011;12316;50.904;4.200;2023-10-31T07:56:15;15.32;;;12.50;;
24157;SDS011;12316;50.904;4.200;2023-10-31T07:58:41;14.40;;;11.75;;
24157;SDS011;12316;50.904;4.200;2023-10-31T08:01:08;19.33;;;12.70;;
24157;SDS011;12316;50.904;4.200;2023-10-31T08:03:35;13.35;;;11.30;;
24157;SDS011;12316;50.904;4.200;2023-10-31T08:06:02;13.77;;;11.07;;
24157;SDS011;12316;50.904;4.200;2023-10-31T08:08:30;14.30;;;10.45;;
24157;SDS011;12316;50.904;4.200;2023-10-31T08:10:55;15.20;;;10.27;;
24157;SDS011;12316;50.904;4.200;2023-10-31T08:13:22;14.13;;;8.95;;
24157;SDS011;12316;50.904;4.200;2023-10-31T08:15:47;10.98;;;8.63;;
24157;SDS011;12316;50.904;4.200;2023-10-31T08:18:13;11.15;;;7.80;;
24157;SDS011;12316;50.904;4.200;2023-10-31T08:20:39;9.50;;;7.57;;
24157;SDS011;12316;50.904;4.200;2023-10-31T08:23:04;10.88;;;7.72;;
24157;SDS011;12316;50.904;4.200;2023-10-31T08:25:30;10.32;;;7.70;;
24157;SDS011;12316;50.904;4.200;2023-10-31T08:27:55;11.88;;;7.13;;
24157;SDS011;12316;50.904;4.200;2023-10-31T08:30:22;12.13;;;7.18;;
24157;SDS011;12316;50.904;4.200;2023-10-31T08:32:48;10.93;;;7.15;;
24157;SDS011;12316;50.904;4.200;2023-10-31T08:35:14;10.25;;;6.78;;
24157;SDS011;12316;50.904;4.200;2023-10-31T08:37:39;11.00;;;6.70;;
24157;SDS011;12316;50.904;4.200;2023-10-31T08:40:05;12.18;;;6.75;;
24157;SDS011;12316;50.904;4.200;2023-10-31T08:42:31;11.52;;;7.00;;
24157;SDS011;12316;50.904;4.200;2023-10-31T08:44:57;8.88;;;6.47;;
24157;SDS011;12316;50.904;4.200;2023-10-31T08:47:24;10.57;;;7.07;;
24157;SDS011;12316;50.904;4.200;2023-10-31T08:49:50;10.45;;;6.60;;
24157;SDS011;12316;50.904;4.200;2023-10-31T08:52:16;11.25;;;6.50;;
24157;SDS011;12316;50.904;4.200;2023-10-31T08:54:42;8.55;;;6.60;;
24157;SDS011;12316;50.904;4.200;2023-10-31T08:57:08;10.35;;;6.47;;
24157;SDS011;12316;50.904;4.200;2023-10-31T08:59:34;10.55;;;6.30;;
24157;SDS011;12316;50.904;4.200;2023-10-31T09:02:00;10.43;;;6.38;;
24157;SDS011;12316;50.904;4.200;2023-10-31T09:04:26;9.32;;;6.40;;
24157;SDS011;12316;50.904;4.200;2023-10-31T09:06:52;12.40;;;5.78;;
24157;SDS011;12316;50.904;4.200;2023-10-31T09:09:17;10.45;;;5.78;;
24157;SDS011;12316;50.904;4.200;2023-10-31T09:11:43;10.75;;;5.90;;
24157;SDS011;12316;50.904;4.200;2023-10-31T09:14:09;7.20;;;5.30;;
24157;SDS011;12316;50.904;4.200;2023-10-31T09:16:34;9.20;;;5.50;;
24157;SDS011;12316;50.904;4.200;2023-10-31T09:19:00;7.80;;;5.38;;
24157;SDS011;12316;50.904;4.200;2023-10-31T09:21:26;10.70;;;5.40;;
24157;SDS011;12316;50.904;4.200;2023-10-31T09:23:51;9.52;;;4.70;;
24157;SDS011;12316;50.904;4.200;2023-10-31T09:26:17;6.88;;;5.00;;
24157;SDS011;12316;50.904;4.200;2023-10-31T09:28:43;9.43;;;5.00;;
24157;SDS011;12316;50.904;4.200;2023-10-31T09:31:15;6.60;;;4.50;;
24157;SDS011;12316;50.904;4.200;2023-10-31T09:33:44;7.93;;;4.55;;
24157;SDS011;12316;50.904;4.200;2023-10-31T09:36:10;7.75;;;4.53;;
24157;SDS011;12316;50.904;4.200;2023-10-31T09:38:37;10.00;;;4.72;;
24157;SDS011;12316;50.904;4.200;2023-10-31T09:41:03;9.10;;;4.90;;
24157;SDS011;12316;50.904;4.200;2023-10-31T09:43:29;11.02;;;5.50;;
24157;SDS011;12316;50.904;4.200;2023-10-31T09:45:56;9.18;;;4.75;;
24157;SDS011;12316;50.904;4.200;2023-10-31T09:48:22;8.80;;;4.75;;
24157;SDS011;12316;50.904;4.200;2023-10-31T09:50:48;10.35;;;5.00;;
24157;SDS011;12316;50.904;4.200;2023-10-31T09:53:15;9.80;;;5.32;;
24157;SDS011;12316;50.904;4.200;2023-10-31T09:55:43;7.88;;;5.00;;
24157;SDS011;12316;50.904;4.200;2023-10-31T09:58:10;9.73;;;5.57;;
24157;SDS011;12316;50.904;4.200;2023-10-31T10:00:36;13.52;;;5.75;;
24157;SDS011;12316;50.904;4.200;2023-10-31T10:03:03;7.20;;;4.82;;
24157;SDS011;12316;50.904;4.200;2023-10-31T10:05:30;12.43;;;5.10;;
24157;SDS011;12316;50.904;4.200;2023-10-31T10:07:57;8.70;;;5.05;;
24157;SDS011;12316;50.904;4.200;2023-10-31T10:10:23;8.55;;;5.22;;
24157;SDS011;12316;50.904;4.200;2023-10-31T10:12:51;9.82;;;5.30;;
24157;SDS011;12316;50.904;4.200;2023-10-31T10:15:17;8.13;;;4.82;;
24157;SDS011;12316;50.904;4.200;2023-10-31T10:17:50;8.95;;;4.90;;
24157;SDS011;12316;50.904;4.200;2023-10-31T10:20:16;13.30;;;6.00;;
24157;SDS011;12316;50.904;4.200;2023-10-31T10:22:43;11.77;;;5.93;;
24157;SDS011;12316;50.904;4.200;2023-10-31T10:25:10;11.70;;;6.05;;
24157;SDS011;12316;50.904;4.200;2023-10-31T10:27:40;11.13;;;5.82;;
24157;SDS011;12316;50.904;4.200;2023-10-31T10:30:07;11.27;;;6.13;;
24157;SDS011;12316;50.904;4.200;2023-10-31T10:32:33;9.32;;;5.90;;
24157;SDS011;12316;50.904;4.200;2023-10-31T10:35:01;12.75;;;6.25;;
24157;SDS011;12316;50.904;4.200;2023-10-31T10:37:27;14.05;;;6.25;;
24157;SDS011;12316;50.904;4.200;2023-10-31T10:39:55;12.05;;;6.90;;
24157;SDS011;12316;50.904;4.200;2023-10-31T10:42:32;11.10;;;6.20;;
24157;SDS011;12316;50.904;4.200;2023-10-31T10:45:05;10.00;;;6.15;;
24157;SDS011;12316;50.904;4.200;2023-10-31T10:47:36;12.32;;;6.28;;
24157;SDS011;12316;50.904;4.200;2023-10-31T10:50:03;11.20;;;6.07;;
24157;SDS011;12316;50.904;4.200;2023-10-31T10:55:38;13.35;;;5.90;;
24157;SDS011;12316;50.904;4.200;2023-10-31T10:58:11;11.43;;;6.05;;
24157;SDS011;12316;50.904;4.200;2023-10-31T11:00:47;10.35;;;5.93;;
24157;SDS011;12316;50.904;4.200;2023-10-31T11:03:14;11.95;;;6.00;;
24157;SDS011;12316;50.904;4.200;2023-10-31T11:05:41;8.90;;;6.10;;
24157;SDS011;12316;50.904;4.200;2023-10-31T11:08:07;12.50;;;6.38;;
24157;SDS011;12316;50.904;4.200;2023-10-31T11:10:34;11.38;;;6.75;;
24157;SDS011;12316;50.904;4.200;2023-10-31T11:13:00;11.70;;;7.13;;
24157;SDS011;12316;50.904;4.200;2023-10-31T11:15:26;9.38;;;6.32;;
24157;SDS011;12316;50.904;4.200;2023-10-31T11:17:52;10.55;;;6.95;;
24157;SDS011;12316;50.904;4.200;2023-10-31T11:20:20;9.40;;;6.70;;
24157;SDS011;12316;50.904;4.200;2023-10-31T11:22:46;13.45;;;7.43;;
24157;SDS011;12316;50.904;4.200;2023-10-31T11:25:19;10.65;;;7.40;;
24157;SDS011;12316;50.904;4.200;2023-10-31T11:27:48;11.85;;;7.65;;
24157;SDS011;12316;50.904;4.200;2023-10-31T11:32:54;15.00;;;8.15;;
24157;SDS011;12316;50.904;4.200;2023-10-31T11:35:23;14.00;;;8.13;;
24157;SDS011;12316;50.904;4.200;2023-10-31T11:37:49;12.02;;;7.75;;
24157;SDS011;12316;50.904;4.200;2023-10-31T11:40:25;12.80;;;8.43;;
24157;SDS011;12316;50.904;4.200;2023-10-31T11:42:52;15.38;;;8.70;;
24157;SDS011;12316;50.904;4.200;2023-10-31T11:45:27;13.48;;;8.40;;
24157;SDS011;12316;50.904;4.200;2023-10-31T11:48:06;16.20;;;8.82;;
24157;SDS011;12316;50.904;4.200;2023-10-31T11:50:34;14.55;;;8.32;;
24157;SDS011;12316;50.904;4.200;2023-10-31T11:58:13;12.68;;;7.80;;
24157;SDS011;12316;50.904;4.200;2023-10-31T12:00:46;11.60;;;8.05;;
24157;SDS011;12316;50.904;4.200;2023-10-31T12:03:17;12.43;;;8.50;;
24157;SDS011;12316;50.904;4.200;2023-10-31T12:05:53;12.95;;;7.68;;
24157;SDS011;12316;50.904;4.200;2023-10-31T12:08:25;13.73;;;8.35;;
24157;SDS011;12316;50.904;4.200;2023-10-31T12:10:52;13.40;;;9.52;;
24157;SDS011;12316;50.904;4.200;2023-10-31T12:13:17;14.85;;;9.48;;
24157;SDS011;12316;50.904;4.200;2023-10-31T12:15:52;13.25;;;10.32;;
24157;SDS011;12316;50.904;4.200;2023-10-31T12:18:18;16.58;;;10.43;;
24157;SDS011;12316;50.904;4.200;2023-10-31T12:20:50;16.50;;;10.65;;
24157;SDS011;12316;50.904;4.200;2023-10-31T12:23:19;18.35;;;11.00;;
24157;SDS011;12316;50.904;4.200;2023-10-31T12:25:45;14.90;;;10.40;;
24157;SDS011;12316;50.904;4.200;2023-10-31T12:28:17;15.00;;;11.45;;
24157;SDS011;12316;50.904;4.200;2023-10-31T12:30:44;14.30;;;10.32;;
24157;SDS011;12316;50.904;4.200;2023-10-31T12:33:15;15.32;;;10.80;;
24157;SDS011;12316;50.904;4.200;2023-10-31T12:35:41;15.02;;;10.07;;
24157;SDS011;12316;50.904;4.200;2023-10-31T12:38:11;14.23;;;9.38;;
24157;SDS011;12316;50.904;4.200;2023-10-31T12:40:38;15.70;;;9.20;;
24157;SDS011;12316;50.904;4.200;2023-10-31T12:43:11;13.07;;;9.10;;
24157;SDS011;12316;50.904;4.200;2023-10-31T12:45:36;12.57;;;8.88;;
24157;SDS011;12316;50.904;4.200;2023-10-31T12:48:03;12.05;;;8.68;;
24157;SDS011;12316;50.904;4.200;2023-10-31T12:50:33;14.18;;;9.05;;
24157;SDS011;12316;50.904;4.200;2023-10-31T12:53:03;15.18;;;8.65;;
24157;SDS011;12316;50.904;4.200;2023-10-31T12:55:30;11.48;;;8.20;;
24157;SDS011;12316;50.904;4.200;2023-10-31T12:57:57;9.15;;;7.30;;
24157;SDS011;12316;50.904;4.200;2023-10-31T13:00:30;10.98;;;7.35;;
24157;SDS011;12316;50.904;4.200;2023-10-31T13:03:01;10.65;;;6.70;;
24157;SDS011;12316;50.904;4.200;2023-10-31T13:05:28;8.68;;;6.28;;
24157;SDS011;12316;50.904;4.200;2023-10-31T13:07:54;7.70;;;6.30;;
24157;SDS011;12316;50.904;4.200;2023-10-31T13:10:24;8.48;;;6.40;;
24157;SDS011;12316;50.904;4.200;2023-10-31T13:12:52;10.05;;;5.97;;
24157;SDS011;12316;50.904;4.200;2023-10-31T13:15:19;7.72;;;5.60;;
24157;SDS011;12316;50.904;4.200;2023-10-31T13:17:45;9.82;;;5.18;;
24157;SDS011;12316;50.904;4.200;2023-10-31T13:20:11;8.05;;;5.78;;
24157;SDS011;12316;50.904;4.200;2023-10-31T13:22:39;9.65;;;5.78;;
24157;SDS011;12316;50.904;4.200;2023-10-31T13:25:06;8.95;;;4.80;;
24157;SDS011;12316;50.904;4.200;2023-10-31T13:27:36;10.50;;;5.40;;
24157;SDS011;12316;50.904;4.200;2023-10-31T13:30:03;10.05;;;5.40;;
24157;SDS011;12316;50.904;4.200;2023-10-31T13:32:29;8.57;;;4.95;;
24157;SDS011;12316;50.904;4.200;2023-10-31T13:34:56;9.98;;;5.22;;
24157;SDS011;12316;50.904;4.200;2023-10-31T13:37:22;7.43;;;4.38;;
24157;SDS011;12316;50.904;4.200;2023-10-31T13:39:48;8.13;;;4.65;;
24157;SDS011;12316;50.904;4.200;2023-10-31T13:42:13;4.78;;;4.32;;
24157;SDS011;12316;50.904;4.200;2023-10-31T13:44:42;6.60;;;4.10;;
24157;SDS011;12316;50.904;4.200;2023-10-31T13:47:09;5.68;;;3.58;;
24157;SDS011;12316;50.904;4.200;2023-10-31T13:49:35;7.75;;;4.00;;
24157;SDS011;12316;50.904;4.200;2023-10-31T13:52:04;7.93;;;4.10;;
24157;SDS011;12316;50.904;4.200;2023-10-31T13:54:33;6.53;;;3.72;;
24157;SDS011;12316;50.904;4.200;2023-10-31T13:56:59;5.20;;;3.20;;
24157;SDS011;12316;50.904;4.200;2023-10-31T13:59:25;6.70;;;3.40;;
24157;SDS011;12316;50.904;4.200;2023-10-31T14:01:50;5.95;;;3.40;;
24157;SDS011;12316;50.904;4.200;2023-10-31T14:04:16;5.03;;;3.38;;
24157;SDS011;12316;50.904;4.200;2023-10-31T14:06:43;7.22;;;3.60;;
24157;SDS011;12316;50.904;4.200;2023-10-31T14:09:09;10.40;;;3.67;;
24157;SDS011;12316;50.904;4.200;2023-10-31T14:11:40;5.15;;;3.03;;
24157;SDS011;12316;50.904;4.200;2023-10-31T14:14:06;6.72;;;3.13;;
24157;SDS011;12316;50.904;4.200;2023-10-31T14:16:38;5.30;;;2.97;;
24157;SDS011;12316;50.904;4.200;2023-10-31T14:19:05;7.13;;;3.05;;
24157;SDS011;12316;50.904;4.200;2023-10-31T14:21:34;4.38;;;3.10;;
24157;SDS011;12316;50.904;4.200;2023-10-31T14:24:01;7.18;;;3.33;;
24157;SDS011;12316;50.904;4.200;2023-10-31T14:26:29;6.63;;;3.17;;
24157;SDS011;12316;50.904;4.200;2023-10-31T14:28:55;6.18;;;3.03;;
24157;SDS011;12316;50.904;4.200;2023-10-31T14:31:21;8.30;;;3.05;;
24157;SDS011;12316;50.904;4.200;2023-10-31T14:33:47;7.75;;;2.92;;
24157;SDS011;12316;50.904;4.200;2023-10-31T14:36:13;7.35;;;2.95;;
24157;SDS011;12316;50.904;4.200;2023-10-31T14:38:39;4.47;;;3.00;;